createdAt,value
2023-06-17T01:02:31.382Z,100.00
2023-06-17T01:05:00.028Z,100.00
2023-06-17T01:07:36.991Z,100.00
2023-06-17T01:10:13.458Z,100.00
2023-06-17T01:12:42.649Z,100.00
2023-06-17T01:15:12.028Z,100.00
2023-06-17T01:17:39.674Z,100.00
2023-06-17T01:20:09.095Z,100.00
2023-06-17T01:22:37.711Z,100.00
2023-06-17T01:25:04.945Z,100.00
2023-06-17T01:27:35.521Z,100.00
2023-06-17T01:30:03.307Z,100.00
2023-06-17T01:32:30.314Z,100.00
2023-06-17T01:35:05.456Z,100.00
2023-06-17T01:37:50.828Z,100.00
2023-06-17T01:40:22.163Z,100.00
2023-06-17T01:42:52.904Z,100.00
2023-06-17T01:45:21.246Z,100.00
2023-06-17T01:47:48.752Z,100.00
2023-06-17T01:50:20.426Z,100.00
2023-06-17T01:52:48.125Z,100.00
2023-06-17T01:55:15.499Z,100.00
2023-06-17T01:57:42.376Z,100.00
2023-06-17T02:00:10.310Z,100.00
2023-06-17T02:02:37.455Z,100.00
2023-06-17T02:05:04.657Z,100.00
2023-06-17T02:07:31.731Z,100.00
2023-06-17T02:09:58.830Z,100.00
2023-06-17T02:12:26.281Z,100.00
2023-06-17T02:14:53.193Z,100.00
2023-06-17T02:17:20.379Z,100.00
2023-06-17T02:19:47.297Z,100.00
2023-06-17T02:22:14.148Z,100.00
2023-06-17T02:24:41.465Z,100.00
2023-06-17T02:27:08.320Z,100.00
2023-06-17T02:29:48.611Z,100.00
2023-06-17T02:32:15.675Z,100.00
2023-06-17T02:34:43.788Z,100.00
2023-06-17T02:37:11.500Z,100.00
2023-06-17T02:39:38.421Z,100.00
2023-06-17T02:42:05.867Z,100.00
2023-06-17T02:44:32.785Z,100.00
2023-06-17T02:46:59.745Z,100.00
2023-06-17T02:49:26.816Z,100.00
2023-06-17T02:51:53.833Z,100.00
2023-06-17T02:54:20.964Z,100.00
2023-06-17T02:56:47.818Z,100.00
2023-06-17T03:13:05.124Z,100.00
2023-06-17T03:15:32.144Z,100.00
2023-06-17T03:17:59.075Z,100.00
2023-06-17T03:20:29.981Z,100.00
2023-06-17T03:22:57.296Z,100.00
2023-06-17T03:25:24.492Z,100.00
2023-06-17T03:27:52.052Z,100.00
2023-06-17T03:30:19.179Z,100.00
2023-06-17T03:32:46.208Z,100.00
2023-06-17T03:35:13.336Z,100.00
2023-06-17T03:37:40.260Z,100.00
2023-06-17T03:40:10.491Z,100.00
2023-06-17T03:42:37.653Z,100.00
2023-06-17T03:45:04.713Z,100.00
2023-06-17T03:47:31.574Z,100.00
2023-06-17T03:49:58.533Z,100.00
2023-06-17T03:52:25.944Z,100.00
2023-06-17T03:54:54.812Z,100.00
2023-06-17T03:57:21.675Z,100.00
2023-06-17T03:59:48.507Z,100.00
2023-06-17T04:04:36.212Z,100.00
2023-06-17T04:07:04.048Z,100.00
2023-06-17T04:09:31.556Z,100.00
2023-06-17T04:11:58.580Z,100.00
2023-06-17T04:14:25.476Z,100.00
2023-06-17T04:16:52.354Z,100.00
2023-06-17T04:19:19.240Z,100.00
2023-06-17T04:21:46.255Z,100.00
2023-06-17T04:24:13.403Z,100.00
2023-06-17T04:26:41.340Z,100.00
2023-06-17T04:29:09.899Z,100.00
2023-06-17T04:31:41.956Z,100.00
2023-06-17T04:34:08.912Z,100.00
2023-06-17T04:36:35.786Z,100.00
2023-06-17T04:39:02.860Z,100.00
2023-06-17T04:41:29.800Z,100.00
2023-06-17T04:43:56.640Z,100.00
2023-06-17T04:46:23.573Z,100.00
2023-06-17T04:48:51.900Z,100.00
2023-06-17T04:51:19.234Z,100.00
2023-06-17T04:53:46.228Z,100.00
2023-06-17T04:56:13.804Z,100.00
2023-06-17T04:58:40.729Z,100.00
2023-06-17T05:01:07.665Z,100.00
2023-06-17T05:03:34.654Z,100.00
2023-06-17T05:06:01.550Z,100.00
2023-06-17T05:08:28.477Z,100.00
2023-06-17T05:10:55.390Z,100.00
2023-06-17T05:13:22.220Z,100.00
2023-06-17T05:15:49.046Z,100.00
2023-06-17T05:18:16.405Z,100.00
2023-06-17T05:20:43.288Z,100.00
2023-06-17T05:23:10.165Z,100.00
2023-06-17T05:25:37.049Z,100.00
2023-06-17T05:28:06.719Z,100.00
2023-06-17T05:30:33.904Z,100.00
2023-06-17T05:33:00.830Z,100.00
2023-06-17T05:35:28.814Z,100.00
2023-06-17T05:37:55.776Z,100.00
2023-06-17T05:40:22.968Z,100.00
2023-06-17T05:42:49.982Z,100.00
2023-06-17T05:45:17.476Z,100.00
2023-06-17T05:47:44.412Z,100.00
2023-06-17T05:50:11.790Z,100.00
2023-06-17T05:52:38.821Z,100.00
2023-06-17T05:55:06.401Z,100.00
2023-06-17T05:57:33.355Z,100.00
2023-06-17T06:00:00.258Z,100.00
2023-06-17T06:02:27.216Z,100.00
2023-06-17T06:04:54.108Z,100.00
2023-06-17T06:07:21.016Z,100.00
2023-06-17T06:09:48.371Z,100.00
2023-06-17T06:12:15.195Z,100.00
2023-06-17T06:14:42.029Z,100.00
2023-06-17T06:17:08.905Z,100.00
2023-06-17T06:19:35.757Z,100.00
2023-06-17T06:22:02.583Z,100.00
2023-06-17T06:24:29.513Z,100.00
2023-06-17T06:26:56.530Z,100.00
2023-06-17T06:29:23.425Z,100.00
2023-06-17T06:31:50.269Z,100.00
2023-06-17T06:34:17.165Z,100.00
2023-06-17T06:36:44.122Z,100.00
2023-06-17T06:39:13.673Z,100.00
2023-06-17T06:41:42.177Z,100.00
2023-06-17T06:44:09.081Z,100.00
2023-06-17T06:46:36.074Z,100.00
2023-06-17T06:49:03.228Z,100.00
2023-06-17T06:51:30.069Z,100.00
2023-06-17T06:53:57.085Z,100.00
2023-06-17T06:56:24.038Z,100.00
2023-06-17T06:58:51.174Z,100.00
2023-06-17T07:01:18.082Z,100.00
2023-06-17T07:03:44.936Z,100.00
2023-06-17T07:06:11.757Z,100.00
2023-06-17T07:08:38.658Z,100.00
2023-06-17T07:11:05.474Z,100.00
2023-06-17T07:13:33.177Z,100.00
2023-06-17T07:16:00.126Z,100.00
2023-06-17T07:18:26.984Z,100.00
2023-06-17T07:20:53.873Z,100.00
2023-06-17T07:23:20.812Z,100.00
2023-06-17T07:25:47.657Z,100.00
2023-06-17T07:28:15.101Z,100.00
2023-06-17T07:30:42.172Z,100.00
2023-06-17T07:33:09.522Z,100.00
2023-06-17T07:35:36.381Z,100.00
2023-06-17T07:38:03.421Z,100.00
2023-06-17T07:40:30.266Z,100.00
2023-06-17T07:42:57.097Z,100.00
2023-06-17T07:45:24.018Z,100.00
2023-06-17T07:47:51.115Z,100.00
2023-06-17T07:50:18.168Z,100.00
2023-06-17T07:52:45.316Z,100.00
2023-06-17T07:55:12.851Z,100.00
2023-06-17T07:57:39.766Z,100.00
2023-06-17T08:00:11.578Z,100.00
2023-06-17T08:02:38.586Z,100.00
2023-06-17T08:05:06.216Z,100.00
2023-06-17T08:07:33.130Z,100.00
2023-06-17T08:10:00.062Z,100.00
2023-06-17T08:12:27.169Z,100.00
2023-06-17T08:14:54.384Z,100.00
2023-06-17T08:17:21.506Z,100.00
2023-06-17T08:19:48.371Z,100.00
2023-06-17T08:22:15.372Z,100.00
2023-06-17T08:24:42.493Z,100.00
2023-06-17T08:27:11.260Z,100.00
2023-06-17T08:29:38.269Z,100.00
2023-06-17T08:32:07.573Z,100.00
2023-06-17T08:34:36.368Z,100.00
2023-06-17T08:40:52.921Z,100.00
2023-06-17T08:43:58.446Z,100.00
2023-06-17T08:46:32.460Z,100.00
2023-06-17T08:49:11.625Z,100.00
2023-06-17T08:51:54.108Z,100.00
2023-06-17T08:54:25.690Z,100.00
2023-06-17T08:57:05.585Z,100.00
2023-06-17T08:59:35.483Z,100.00
2023-06-17T09:02:05.051Z,100.00
2023-06-17T09:04:32.602Z,100.00
2023-06-17T09:07:01.587Z,100.00
2023-06-17T09:09:28.620Z,100.00
2023-06-17T09:12:08.235Z,100.00
2023-06-17T09:14:35.641Z,100.00
2023-06-17T09:17:04.386Z,100.00
2023-06-17T09:19:35.073Z,100.00
2023-06-17T09:22:08.264Z,100.00
2023-06-17T09:24:35.317Z,100.00
2023-06-17T09:27:03.502Z,100.00
2023-06-17T09:29:37.760Z,100.00
2023-06-17T09:32:42.775Z,100.00
2023-06-17T09:36:05.694Z,100.00
2023-06-17T09:42:14.172Z,100.00
2023-06-17T09:48:26.098Z,100.00
2023-06-17T09:51:56.021Z,100.00
2023-06-17T09:54:52.082Z,100.00
2023-06-17T09:58:26.936Z,100.00
2023-06-17T10:00:54.396Z,100.00
2023-06-17T10:03:21.607Z,100.00
2023-06-17T10:06:03.200Z,100.00
2023-06-17T10:08:32.248Z,100.00
2023-06-17T10:11:01.413Z,100.00
2023-06-17T10:13:33.751Z,100.00
2023-06-17T10:16:03.500Z,100.00
2023-06-17T10:18:35.101Z,100.00
2023-06-17T10:21:03.496Z,100.00
2023-06-17T10:23:32.135Z,100.00
2023-06-17T10:25:59.183Z,100.00
2023-06-17T10:28:26.041Z,100.00
2023-06-17T10:30:53.316Z,100.00
2023-06-17T10:33:31.336Z,99.73
2023-06-17T10:36:08.841Z,97.60
2023-06-17T10:38:36.048Z,96.99
2023-06-17T10:41:03.048Z,97.52
2023-06-17T10:43:37.846Z,96.35
2023-06-17T10:46:04.979Z,95.82
2023-06-17T10:48:34.131Z,94.28
2023-06-17T10:51:10.169Z,94.29
2023-06-17T10:53:38.024Z,94.41
2023-06-17T10:56:08.202Z,94.29
2023-06-17T10:58:55.587Z,94.03
2023-06-17T11:01:22.525Z,92.13
2023-06-17T11:03:49.440Z,90.17
2023-06-17T11:06:16.413Z,89.02
2023-06-17T11:08:43.256Z,91.50
2023-06-17T11:11:12.581Z,92.18
2023-06-17T11:13:41.397Z,90.84
2023-06-17T11:16:08.803Z,89.88
2023-06-17T11:18:37.262Z,90.59
2023-06-17T11:21:11.257Z,91.98
2023-06-17T11:23:41.424Z,91.37
2023-06-17T11:26:09.790Z,90.85
2023-06-17T11:28:38.339Z,92.63
2023-06-17T11:31:06.814Z,88.95
2023-06-17T11:33:37.827Z,93.53
2023-06-17T11:36:11.255Z,94.56
2023-06-17T11:38:39.305Z,95.14
2023-06-17T11:41:06.504Z,97.13
2023-06-17T11:43:33.931Z,96.00
2023-06-17T11:46:01.256Z,95.48
2023-06-17T11:48:29.851Z,95.76
2023-06-17T11:51:00.629Z,96.67
2023-06-17T11:53:40.734Z,93.46
2023-06-17T11:56:09.345Z,90.74
2023-06-17T11:58:40.486Z,93.95
2023-06-17T12:15:10.947Z,94.62
2023-06-17T12:17:50.144Z,98.43
2023-06-17T12:20:21.842Z,96.26
2023-06-17T12:22:51.122Z,95.73
2023-06-17T12:25:19.534Z,96.40
2023-06-17T12:27:51.141Z,97.06
2023-06-17T12:32:45.941Z,95.61
2023-06-17T12:35:13.587Z,96.15
2023-06-17T12:37:42.699Z,94.53
2023-06-17T12:40:10.790Z,94.86
2023-06-17T12:42:38.181Z,91.78
2023-06-17T12:45:07.046Z,91.05
2023-06-17T12:47:33.953Z,89.65
2023-06-17T12:50:01.179Z,90.40
2023-06-17T12:52:28.764Z,90.21
2023-06-17T12:55:02.563Z,89.07
2023-06-17T12:57:30.656Z,89.60
2023-06-17T12:59:57.537Z,87.82
2023-06-17T13:02:24.475Z,87.48
2023-06-17T13:04:51.468Z,89.28
2023-06-17T13:07:18.770Z,87.95
2023-06-17T13:09:45.722Z,87.19
2023-06-17T13:12:12.647Z,85.12
2023-06-17T13:14:40.917Z,86.57
2023-06-17T13:17:07.877Z,88.22
2023-06-17T13:19:35.112Z,86.58
2023-06-17T13:22:01.983Z,86.30
2023-06-17T13:24:29.072Z,87.06
2023-06-17T13:26:56.128Z,87.43
2023-06-17T13:29:24.433Z,88.18
2023-06-17T13:31:51.495Z,85.51
2023-06-17T13:34:19.427Z,86.22
2023-06-17T13:36:47.688Z,86.36
2023-06-17T13:39:15.242Z,84.82
2023-06-17T13:41:42.667Z,85.03
2023-06-17T13:44:10.045Z,83.87
2023-06-17T13:46:37.318Z,80.85
2023-06-17T13:49:04.700Z,81.34
2023-06-17T13:51:32.793Z,82.56
2023-06-17T13:54:03.340Z,80.47
2023-06-17T13:56:30.633Z,81.86
2023-06-17T13:58:57.561Z,82.56
2023-06-17T14:01:25.106Z,82.82
2023-06-17T14:03:53.291Z,85.68
2023-06-17T14:06:21.284Z,87.47
2023-06-17T14:08:48.525Z,85.99
2023-06-17T14:11:15.544Z,88.06
2023-06-17T14:13:44.180Z,88.20
2023-06-17T14:16:11.785Z,87.29
2023-06-17T14:18:38.805Z,86.45
2023-06-17T14:21:05.773Z,86.00
2023-06-17T14:23:32.642Z,84.94
2023-06-17T14:25:59.587Z,85.37
2023-06-17T14:28:26.446Z,86.50
2023-06-17T14:30:53.696Z,84.75
2023-06-17T14:33:20.668Z,85.14
2023-06-17T14:35:47.511Z,87.07
2023-06-17T14:38:14.538Z,86.57
2023-06-17T14:40:41.492Z,87.03
2023-06-17T14:43:08.847Z,86.57
2023-06-17T14:45:36.077Z,88.29
2023-06-17T14:48:04.027Z,87.58
2023-06-17T14:50:31.204Z,89.23
2023-06-17T14:52:58.218Z,89.91
2023-06-17T14:55:25.100Z,89.72
2023-06-17T14:57:52.420Z,89.65
2023-06-17T15:00:21.104Z,88.60
2023-06-17T15:02:50.259Z,90.56
2023-06-17T15:05:17.924Z,88.57
2023-06-17T15:07:45.247Z,86.93
2023-06-17T15:10:12.446Z,86.84
2023-06-17T15:12:43.396Z,88.03
2023-06-17T15:15:12.310Z,86.90
2023-06-17T15:17:39.813Z,87.74
2023-06-17T15:20:07.858Z,87.55
2023-06-17T15:22:35.016Z,86.39
2023-06-17T15:25:02.049Z,86.70
2023-06-17T15:27:28.906Z,88.25
2023-06-17T15:29:55.769Z,89.83
2023-06-17T15:32:23.484Z,90.74
2023-06-17T15:34:50.721Z,93.01
2023-06-17T15:37:17.679Z,92.83
2023-06-17T15:39:45.359Z,93.10
2023-06-17T15:42:13.086Z,93.73
2023-06-17T15:44:39.950Z,93.82
2023-06-17T15:47:07.077Z,93.67
2023-06-17T15:49:33.992Z,92.86
2023-06-17T15:52:01.084Z,93.45
2023-06-17T15:54:27.988Z,93.91
2023-06-17T15:56:54.912Z,95.98
2023-06-17T15:59:21.858Z,95.40
2023-06-17T16:01:48.888Z,95.33
2023-06-17T16:04:45.878Z,96.06
2023-06-17T16:07:14.451Z,96.93
2023-06-17T16:09:49.084Z,96.29
2023-06-17T16:12:17.908Z,97.01
2023-06-17T16:14:45.821Z,96.74
2023-06-17T16:17:13.001Z,96.46
2023-06-17T16:19:40.273Z,97.69
2023-06-17T16:22:13.438Z,96.74
2023-06-17T16:24:42.782Z,97.73
2023-06-17T16:27:11.990Z,96.93
2023-06-17T16:29:39.392Z,97.68
2023-06-17T16:32:06.788Z,97.49
2023-06-17T16:34:33.739Z,99.06
2023-06-17T16:37:02.018Z,98.81
2023-06-17T16:39:29.027Z,98.69
2023-06-17T16:41:56.289Z,98.65
2023-06-17T16:44:23.195Z,98.14
2023-06-17T16:46:50.207Z,97.64
2023-06-17T16:49:17.134Z,98.35
2023-06-17T16:51:45.747Z,98.68
2023-06-17T16:54:12.635Z,99.80
2023-06-17T16:56:39.571Z,100.00
2023-06-17T16:59:06.614Z,100.00
2023-06-17T17:01:33.684Z,100.00
2023-06-17T17:04:01.875Z,100.00
2023-06-17T17:43:09.933Z,100.00
2023-06-17T17:45:45.181Z,100.00
2023-06-17T18:04:00.668Z,100.00
2023-06-17T18:06:30.778Z,100.00
2023-06-17T18:16:30.062Z,100.00
2023-06-17T18:22:43.842Z,100.00
2023-06-17T18:25:11.146Z,100.00
2023-06-17T18:27:39.193Z,100.00
2023-06-17T18:30:12.790Z,100.00
2023-06-17T18:32:59.732Z,100.00
2023-06-17T18:35:26.791Z,100.00
2023-06-17T18:37:53.792Z,100.00
2023-06-17T18:40:21.159Z,100.00
2023-06-17T18:42:48.561Z,100.00
2023-06-17T18:45:15.554Z,100.00
2023-06-17T18:47:42.768Z,100.00
2023-06-17T18:50:09.932Z,100.00
2023-06-17T18:52:36.887Z,100.00
2023-06-17T18:55:09.935Z,100.00
2023-06-17T18:57:44.532Z,100.00
2023-06-17T19:00:37.082Z,100.00
2023-06-17T19:03:12.231Z,100.00
2023-06-17T19:05:48.407Z,100.00
2023-06-17T19:08:17.434Z,100.00
2023-06-17T19:14:24.949Z,100.00
2023-06-17T19:29:07.042Z,100.00
2023-06-17T19:31:46.397Z,100.00
2023-06-17T19:34:48.502Z,100.00
2023-06-17T22:08:53.551Z,100.00
2023-06-17T22:12:10.921Z,100.00
